Time;durP1;ratioP1;P1;durP2;ratioP2;P2;SDS_P1;SDS_P2;PMS_P1;PMS_P2;Temp;Humidity;BMP_temperature;BMP_pressure;BME280_temperature;BME280_humidity;BME280_pressure;Samples;Min_cycle;Max_cycle;Signal;HPM_P1;HPM_P2
2021/12/13 00:01:01;;;;;;;4.87;2.90;;;5.70;83.80;4.90;99285.00;;;;5115712;28;20232;-70
2021/12/13 00:03:34;;;;;;;1.00;1.00;;;5.70;84.10;4.90;99285.00;;;;5115612;28;20198;-72
2021/12/13 00:06:09;;;;;;;0.70;0.70;;;5.70;84.00;4.80;99288.00;;;;5115487;28;20201;-70
2021/12/13 00:08:41;;;;;;;1.07;1.00;;;5.70;83.90;4.90;99306.00;;;;5115551;28;20242;-71
2021/12/13 00:11:12;;;;;;;1.13;1.13;;;5.70;84.20;4.90;99293.00;;;;5115544;28;20198;-71
2021/12/13 00:13:43;;;;;;;1.20;1.20;;;5.70;84.20;4.90;99298.00;;;;5115552;28;20591;-72
2021/12/13 00:16:12;;;;;;;2.00;1.23;;;5.80;84.20;4.90;99298.00;;;;5115337;28;20213;-71
2021/12/13 00:18:46;;;;;;;1.20;1.10;;;5.70;84.20;4.90;99290.00;;;;5115307;28;20209;-71
2021/12/13 00:21:21;;;;;;;0.93;0.93;;;5.70;84.30;5.00;99293.00;;;;5115480;28;20222;-71
2021/12/13 00:23:53;;;;;;;1.30;1.20;;;5.80;84.30;5.00;99291.00;;;;5115420;28;20652;-71
2021/12/13 00:26:29;;;;;;;1.20;1.20;;;5.80;84.30;5.00;99289.00;;;;5115299;28;20598;-71
2021/12/13 00:29:07;;;;;;;2.33;1.30;;;5.80;84.50;5.00;99290.00;;;;5114532;28;20206;-72
2021/12/13 00:31:48;;;;;;;0.77;0.77;;;5.80;84.30;5.00;99279.00;;;;5115194;28;20221;-71
2021/12/13 00:34:31;;;;;;;0.80;0.80;;;5.80;84.50;4.90;99306.00;;;;5115207;28;20291;-71
2021/12/13 00:37:07;;;;;;;1.00;1.00;;;5.80;84.70;5.00;99297.00;;;;5115382;28;20216;-71
2021/12/13 00:39:52;;;;;;;0.80;0.80;;;5.80;84.90;5.00;99300.00;;;;5115051;28;20580;-71
2021/12/13 00:42:21;;;;;;;0.80;0.80;;;5.80;85.10;5.00;99293.00;;;;5115088;28;20233;-70
2021/12/13 00:44:53;;;;;;;1.43;1.17;;;5.80;85.40;5.00;99299.00;;;;5114999;28;20198;-70
2021/12/13 00:47:26;;;;;;;1.10;1.10;;;5.80;85.60;5.00;99309.00;;;;5097289;28;20280;-71
2021/12/13 00:50:00;;;;;;;0.80;0.80;;;5.80;85.70;5.00;99317.00;;;;5114966;28;20298;-71
2021/12/13 00:52:31;;;;;;;0.70;0.70;;;5.80;86.10;5.00;99310.00;;;;5114821;28;20194;-71
2021/12/13 00:55:01;;;;;;;1.20;1.20;;;5.80;86.30;5.00;99296.00;;;;5114794;28;20221;-70
2021/12/13 00:57:50;;;;;;;0.90;0.90;;;5.80;86.60;4.90;99308.00;;;;5114796;28;20194;-71
2021/12/13 01:00:27;;;;;;;1.20;1.20;;;5.70;86.70;5.00;99305.00;;;;5109060;28;20266;-71
2021/12/13 01:02:59;;;;;;;1.10;1.10;;;5.70;86.90;4.90;99300.00;;;;5114779;28;20272;-70
2021/12/13 01:05:47;;;;;;;0.60;0.60;;;5.70;87.00;4.90;99300.00;;;;5096034;28;20237;-71
2021/12/13 01:09:19;;;;;;;0.60;0.60;;;5.70;87.30;4.90;99305.00;;;;5114650;28;20282;-71
2021/12/13 01:11:54;;;;;;;1.00;1.00;;;5.70;88.20;4.80;99305.00;;;;5088020;28;20261;-71
2021/12/13 01:14:56;;;;;;;1.03;1.00;;;5.70;87.60;4.90;99298.00;;;;5114577;28;20225;-71
2021/12/13 01:17:42;;;;;;;1.27;1.27;;;5.70;87.90;4.80;99297.00;;;;5114383;28;20206;-70
2021/12/13 01:20:18;;;;;;;1.20;1.20;;;5.70;88.00;4.80;99300.00;;;;5114557;28;20190;-70
2021/12/13 01:22:51;;;;;;;1.47;1.37;;;5.70;88.30;4.80;99312.00;;;;5114340;28;20225;-71
2021/12/13 01:25:44;;;;;;;1.10;1.10;;;5.70;88.40;4.80;99298.00;;;;5114552;28;20201;-71
2021/12/13 01:28:20;;;;;;;1.70;1.30;;;5.60;88.30;4.80;99300.00;;;;5114318;28;20240;-71
2021/12/13 01:30:53;;;;;;;1.63;1.53;;;5.60;88.40;4.80;99314.00;;;;5114276;28;20189;-70
2021/12/13 01:33:26;;;;;;;0.80;0.80;;;5.60;88.70;4.80;99308.00;;;;5114375;28;20637;-70
2021/12/13 01:35:58;;;;;;;1.73;1.63;;;5.60;89.40;4.70;99308.00;;;;5114476;28;20331;-71
2021/12/13 01:38:33;;;;;;;1.37;1.23;;;5.60;88.90;4.80;99311.00;;;;5114401;28;20194;-71
2021/12/13 01:41:08;;;;;;;0.80;0.80;;;5.60;89.00;4.80;99308.00;;;;5096198;28;20229;-71
2021/12/13 01:43:39;;;;;;;1.37;1.27;;;5.60;89.20;4.80;99308.00;;;;5114217;28;20221;-71
2021/12/13 01:46:07;;;;;;;0.70;0.70;;;5.60;89.40;4.80;99309.00;;;;5114163;28;20225;-70
2021/12/13 01:48:37;;;;;;;1.30;1.30;;;5.60;89.40;4.90;99314.00;;;;5114103;28;20203;-70
2021/12/13 01:51:11;;;;;;;1.93;1.77;;;5.60;89.40;4.80;99315.00;;;;5113999;28;20304;-71
2021/12/13 01:53:45;;;;;;;1.87;1.73;;;5.60;89.50;4.90;99320.00;;;;5096202;28;20552;-70
2021/12/13 01:56:38;;;;;;;0.83;0.83;;;5.70;89.60;4.90;99308.00;;;;5114080;28;20249;-71
2021/12/13 01:59:27;;;;;;;0.90;0.90;;;5.70;89.80;4.90;99312.00;;;;5113947;28;20210;-70
2021/12/13 02:01:55;;;;;;;0.77;0.77;;;5.70;89.80;4.80;99277.00;;;;5113813;28;20222;-71
2021/12/13 02:04:23;;;;;;;1.00;1.00;;;5.70;89.80;4.90;99308.00;;;;5113552;28;20210;-71
2021/12/13 02:07:01;;;;;;;0.50;0.50;;;5.70;90.10;4.90;99292.00;;;;5113984;28;20198;-71
2021/12/13 02:09:35;;;;;;;2.57;2.40;;;5.70;90.20;4.90;99299.00;;;;5114004;28;20220;-71
2021/12/13 02:12:06;;;;;;;1.00;1.00;;;5.70;90.20;4.90;99277.00;;;;5113916;28;20190;-71
2021/12/13 02:14:35;;;;;;;1.30;1.23;;;5.70;90.30;4.90;99305.00;;;;5113782;28;20296;-71
2021/12/13 02:17:10;;;;;;;1.50;1.40;;;5.70;90.30;4.90;99296.00;;;;5113922;28;20492;-71
2021/12/13 02:19:46;;;;;;;1.10;1.10;;;5.70;90.40;4.90;99272.00;;;;5099062;28;20248;-71
2021/12/13 02:22:38;;;;;;;1.17;1.17;;;5.70;90.40;4.90;99293.00;;;;5117214;28;20213;-71
2021/12/13 02:25:17;;;;;;;1.20;1.20;;;5.70;90.50;4.90;99296.00;;;;5099408;28;20225;-70
2021/12/13 02:27:51;;;;;;;1.20;1.20;;;5.70;90.50;4.90;99298.00;;;;5117350;28;20197;-71
2021/12/13 02:30:30;;;;;;;1.50;1.40;;;5.70;90.60;4.90;99309.00;;;;5117225;28;20299;-70
2021/12/13 02:32:58;;;;;;;0.90;0.90;;;5.70;90.70;5.00;99306.00;;;;5117041;28;20619;-71
2021/12/13 02:35:35;;;;;;;2.73;1.23;;;5.70;90.70;4.90;99310.00;;;;5116929;28;20233;-71
2021/12/13 02:38:07;;;;;;;3.20;2.90;;;5.70;90.70;4.90;99308.00;;;;5116927;28;20198;-71
2021/12/13 02:40:35;;;;;;;2.03;1.87;;;5.80;90.80;4.90;99312.00;;;;5098889;28;20339;-71
2021/12/13 02:43:08;;;;;;;1.00;1.00;;;5.80;90.80;5.00;99322.00;;;;5116859;28;20194;-70
2021/12/13 02:45:44;;;;;;;1.80;1.70;;;5.80;91.00;5.00;99298.00;;;;5116821;28;20194;-70
2021/12/13 02:48:19;;;;;;;1.37;1.13;;;5.80;90.90;5.00;99308.00;;;;5116811;28;20194;-71
2021/12/13 02:50:55;;;;;;;0.97;0.97;;;5.80;91.00;5.00;99312.00;;;;5098993;28;20694;-70
2021/12/13 02:53:32;;;;;;;1.93;1.83;;;5.80;91.00;5.00;99318.00;;;;5116633;28;20366;-71
2021/12/13 02:56:00;;;;;;;0.83;0.83;;;5.80;90.90;5.00;99314.00;;;;5116830;28;20225;-71
2021/12/13 02:58:28;;;;;;;1.90;1.77;;;5.90;91.20;5.00;99313.00;;;;5116421;28;20248;-71
2021/12/13 03:01:04;;;;;;;1.20;1.20;;;5.90;91.00;5.00;99320.00;;;;5116435;28;20644;-70
2021/12/13 03:03:37;;;;;;;2.17;2.07;;;5.90;91.00;5.10;99311.00;;;;5098740;28;20718;-71
2021/12/13 03:06:09;;;;;;;2.03;1.93;;;5.80;91.00;5.10;99292.00;;;;5116563;28;20249;-70
2021/12/13 03:08:42;;;;;;;1.33;1.23;;;5.90;91.10;5.10;99316.00;;;;5116483;28;20652;-70
2021/12/13 03:11:23;;;;;;;1.60;1.13;;;5.90;90.80;5.10;99318.00;;;;5098777;28;20206;-71
2021/12/13 03:13:55;;;;;;;2.47;1.60;;;5.90;90.70;5.00;99309.00;;;;5116494;28;20194;-70
2021/12/13 03:16:28;;;;;;;1.40;1.30;;;5.90;91.40;5.10;99305.00;;;;5116285;28;20240;-71
2021/12/13 03:19:04;;;;;;;1.37;1.27;;;5.90;90.90;5.10;99305.00;;;;5116351;28;20201;-71
2021/12/13 03:22:14;;;;;;;0.90;0.90;;;5.90;90.90;5.00;99312.00;;;;5116164;28;20229;-71
2021/12/13 03:25:06;;;;;;;2.37;1.93;;;5.90;90.90;5.00;99320.00;;;;5116343;28;20203;-71
2021/12/13 03:27:56;;;;;;;1.03;1.03;;;5.80;90.80;5.00;99317.00;;;;5098236;28;20579;-71
2021/12/13 03:30:28;;;;;;;3.77;1.60;;;5.80;90.90;5.00;99319.00;;;;5115809;28;20598;-71
2021/12/13 03:32:58;;;;;;;0.93;0.93;;;5.90;91.20;4.90;99312.00;;;;5116192;28;20218;-72
2021/12/13 03:35:35;;;;;;;1.40;1.30;;;5.80;91.10;5.00;99322.00;;;;5116158;28;20202;-71
2021/12/13 03:38:12;;;;;;;1.37;1.37;;;5.80;91.10;5.00;99315.00;;;;5098267;28;20228;-71
2021/12/13 03:40:40;;;;;;;1.07;1.00;;;5.80;91.20;5.00;99310.00;;;;5116031;28;20644;-71
2021/12/13 03:43:12;;;;;;;1.00;1.00;;;5.80;91.20;5.00;99324.00;;;;5115811;28;20241;-71
2021/12/13 03:45:47;;;;;;;2.73;2.43;;;5.90;91.40;5.00;99318.00;;;;5115850;28;20242;-71
2021/12/13 03:48:19;;;;;;;1.60;1.00;;;5.90;91.40;5.00;99319.00;;;;5115873;28;20218;-71
2021/12/13 03:50:52;;;;;;;0.87;0.87;;;5.90;91.50;5.10;99319.00;;;;5115892;28;20281;-71
2021/12/13 03:53:33;;;;;;;1.67;1.57;;;5.90;91.60;5.10;99313.00;;;;5115983;28;20258;-70
2021/12/13 03:56:06;;;;;;;1.30;1.10;;;5.90;91.60;5.00;99327.00;;;;5098100;28;20491;-71
2021/12/13 03:58:39;;;;;;;3.73;2.03;;;5.90;91.60;5.00;99323.00;;;;5115718;28;20250;-71
2021/12/13 04:01:10;;;;;;;0.90;0.90;;;5.90;91.60;5.00;99324.00;;;;5115717;28;20645;-71
2021/12/13 04:03:40;;;;;;;1.33;1.33;;;5.90;91.60;5.10;99325.00;;;;5115737;28;20200;-71
2021/12/13 04:06:07;;;;;;;1.47;1.37;;;5.90;91.70;5.10;99319.00;;;;5115550;28;20249;-71
2021/12/13 04:08:35;;;;;;;1.70;1.60;;;5.90;91.80;5.10;99323.00;;;;5115576;28;20298;-72
2021/12/13 04:11:10;;;;;;;1.17;1.07;;;5.90;91.80;5.10;99322.00;;;;5115761;28;20229;-71
2021/12/13 04:13:43;;;;;;;1.47;1.37;;;5.90;91.80;5.10;99317.00;;;;5097765;28;20640;-71
2021/12/13 04:16:30;;;;;;;0.90;0.90;;;5.90;91.80;5.10;99311.00;;;;5115433;28;20254;-71
2021/12/13 04:19:06;;;;;;;1.50;1.40;;;5.90;91.70;5.10;99323.00;;;;5115500;28;20205;-70
2021/12/13 04:21:46;;;;;;;1.60;1.23;;;5.90;91.70;5.10;99322.00;;;;5097321;28;20218;-71
2021/12/13 04:24:21;;;;;;;0.80;0.80;;;5.90;91.90;5.10;99329.00;;;;5115370;28;20207;-71
2021/12/13 04:26:54;;;;;;;0.80;0.80;;;5.90;91.80;5.00;99323.00;;;;5097384;28;20590;-71
2021/12/13 04:29:27;;;;;;;1.13;1.13;;;5.90;91.90;5.10;99319.00;;;;5115192;28;20229;-71
2021/12/13 04:31:56;;;;;;;1.17;1.17;;;5.90;91.90;5.10;99326.00;;;;5115534;28;20224;-70
2021/12/13 04:34:26;;;;;;;1.40;1.40;;;5.90;92.00;5.00;99322.00;;;;5115170;28;20674;-71
2021/12/13 04:36:59;;;;;;;1.53;1.43;;;5.90;91.90;5.10;99327.00;;;;5097289;28;20555;-71
2021/12/13 04:39:32;;;;;;;2.00;1.00;;;5.90;92.00;5.10;99326.00;;;;5115026;28;20612;-71
2021/12/13 04:42:05;;;;;;;1.10;1.10;;;5.90;92.00;5.10;99325.00;;;;5113949;28;20221;-71
2021/12/13 04:44:37;;;;;;;1.17;1.10;;;5.90;91.90;5.10;99330.00;;;;5115042;28;20760;-70
2021/12/13 04:47:13;;;;;;;1.07;1.07;;;5.90;92.00;5.10;99337.00;;;;5115010;28;20206;-70
2021/12/13 04:49:47;;;;;;;1.00;1.00;;;5.90;92.00;5.10;99338.00;;;;5096894;28;20232;-71
2021/12/13 04:52:18;;;;;;;1.10;1.10;;;5.90;92.00;5.10;99328.00;;;;5114961;28;20224;-70
2021/12/13 04:54:51;;;;;;;1.50;1.50;;;6.00;92.00;5.20;99334.00;;;;5114853;28;20198;-71
2021/12/13 04:57:21;;;;;;;1.03;1.03;;;6.00;91.90;5.20;99330.00;;;;5114868;28;20220;-70
2021/12/13 04:59:53;;;;;;;1.87;1.77;;;5.90;92.00;5.20;99334.00;;;;5114840;28;20196;-70
2021/12/13 05:02:22;;;;;;;1.07;1.07;;;6.00;91.90;5.10;99330.00;;;;5114651;28;20316;-70
2021/12/13 05:04:53;;;;;;;1.27;1.27;;;6.00;91.80;5.20;99323.00;;;;5114621;28;20272;-70
2021/12/13 05:07:21;;;;;;;1.07;1.07;;;6.00;91.90;5.10;99321.00;;;;5114549;28;20221;-71
2021/12/13 05:09:49;;;;;;;1.43;1.33;;;6.00;91.90;5.20;99338.00;;;;5114625;28;20222;-72
2021/12/13 05:12:22;;;;;;;1.20;1.20;;;6.00;91.90;5.20;99346.00;;;;5114460;28;20195;-70
2021/12/13 05:14:53;;;;;;;1.23;1.13;;;6.00;91.90;5.20;99350.00;;;;5114602;28;20191;-70
2021/12/13 05:17:24;;;;;;;1.50;1.40;;;6.00;92.50;5.20;99344.00;;;;5114608;28;20657;-70
2021/12/13 05:19:58;;;;;;;3.37;1.93;;;6.00;91.80;5.20;99337.00;;;;5114484;28;20206;-71
2021/12/13 05:22:25;;;;;;;2.80;2.60;;;6.00;91.80;5.20;99348.00;;;;5114471;28;20600;-70
2021/12/13 05:24:59;;;;;;;0.90;0.90;;;6.00;91.80;5.20;99350.00;;;;5114353;28;20222;-70
2021/12/13 05:27:32;;;;;;;1.10;1.07;;;6.00;91.90;5.30;99352.00;;;;5114423;28;20256;-71
2021/12/13 05:30:14;;;;;;;0.83;0.83;;;6.10;91.80;5.30;99349.00;;;;5114387;28;20260;-71
2021/12/13 05:32:48;;;;;;;1.70;1.60;;;6.10;91.70;5.20;99351.00;;;;5114443;28;20190;-71
2021/12/13 05:35:28;;;;;;;1.30;1.30;;;6.10;91.60;5.20;99365.00;;;;5114281;28;20250;-71
2021/12/13 05:37:59;;;;;;;1.30;1.30;;;6.00;91.40;5.20;99365.00;;;;5114347;28;20201;-71
2021/12/13 05:40:37;;;;;;;0.90;0.90;;;6.10;91.70;5.20;99365.00;;;;5114239;28;20245;-71
2021/12/13 05:43:19;;;;;;;1.60;1.40;;;6.10;91.60;5.20;99365.00;;;;5114189;28;20347;-71
2021/12/13 05:45:52;;;;;;;0.93;0.93;;;6.00;91.50;5.30;99366.00;;;;5113990;28;20235;-71
2021/12/13 05:48:23;;;;;;;2.00;1.50;;;6.00;91.60;5.20;99371.00;;;;5114216;28;20732;-70
2021/12/13 05:50:55;;;;;;;1.60;1.50;;;6.00;91.60;5.30;99373.00;;;;5114132;28;20295;-71
2021/12/13 05:53:26;;;;;;;0.83;0.83;;;6.10;91.80;5.30;99372.00;;;;5117163;28;20353;-71
2021/12/13 05:56:01;;;;;;;1.80;1.70;;;6.00;91.70;5.30;99376.00;;;;5117769;28;20241;-71
2021/12/13 05:58:43;;;;;;;1.00;1.00;;;6.10;91.90;5.30;99388.00;;;;5117526;28;20254;-71
2021/12/13 06:01:19;;;;;;;1.90;1.80;;;6.10;91.70;5.30;99388.00;;;;5117515;28;20216;-70
2021/12/13 06:03:53;;;;;;;1.73;1.63;;;6.10;91.80;5.30;99390.00;;;;5117113;28;20218;-70
2021/12/13 06:06:27;;;;;;;2.73;2.10;;;6.10;91.70;5.10;99385.00;;;;5117485;28;20218;-71
2021/12/13 06:08:57;;;;;;;1.40;1.30;;;6.10;91.80;5.30;99388.00;;;;5117425;28;20650;-70
2021/12/13 06:11:32;;;;;;;0.70;0.70;;;6.10;91.90;5.30;99387.00;;;;5117402;28;20194;-71
2021/12/13 06:14:16;;;;;;;1.17;1.17;;;6.10;91.90;5.30;99388.00;;;;5099367;28;20223;-71
2021/12/13 06:17:07;;;;;;;1.60;1.33;;;6.10;91.90;5.30;99384.00;;;;5099584;28;20219;-70
2021/12/13 06:19:38;;;;;;;1.13;1.13;;;6.10;91.90;5.30;99374.00;;;;5099336;28;20194;-71
2021/12/13 06:22:12;;;;;;;1.33;1.23;;;6.10;91.80;5.30;99390.00;;;;5117309;28;20621;-71
2021/12/13 06:24:41;;;;;;;1.13;1.13;;;6.10;91.90;5.30;99394.00;;;;5117389;28;20216;-72
2021/12/13 06:27:16;;;;;;;6.93;2.03;;;6.10;92.00;5.30;99380.00;;;;5098976;28;20299;-71
2021/12/13 06:30:05;;;;;;;3.40;1.10;;;6.10;91.90;5.30;99391.00;;;;5117147;28;20225;-71
2021/12/13 06:32:41;;;;;;;1.80;1.40;;;6.10;92.00;5.30;99388.00;;;;5117005;28;20298;-71
2021/12/13 06:35:40;;;;;;;0.80;0.80;;;6.10;92.00;5.30;99379.00;;;;5117155;28;20193;-73
2021/12/13 06:38:49;;;;;;;1.37;1.37;;;6.10;92.10;5.30;99394.00;;;;5117289;28;20199;-71
2021/12/13 06:41:38;;;;;;;1.07;1.07;;;6.10;92.10;5.30;99384.00;;;;5116849;28;20223;-73
2021/12/13 06:44:15;;;;;;;0.90;0.90;;;6.10;92.00;5.30;99389.00;;;;5117223;28;20201;-72
2021/12/13 06:46:51;;;;;;;1.40;1.37;;;6.10;92.90;5.20;99382.00;;;;5116984;28;20221;-71
2021/12/13 06:49:26;;;;;;;1.80;1.60;;;6.10;92.20;5.30;99396.00;;;;5098864;28;20485;-73
2021/12/13 06:52:00;;;;;;;1.17;1.17;;;6.10;92.20;5.20;99396.00;;;;5116812;28;20190;-73
2021/12/13 06:54:35;;;;;;;2.50;1.57;;;6.10;92.20;5.30;99401.00;;;;5116598;28;20217;-72
2021/12/13 06:57:07;;;;;;;1.50;1.40;;;6.10;92.40;5.30;99395.00;;;;5116553;28;20289;-73
2021/12/13 06:59:44;;;;;;;1.43;1.33;;;6.10;92.40;5.30;99405.00;;;;5116356;28;20534;-72
2021/12/13 07:02:17;;;;;;;6.73;1.57;;;6.10;92.40;5.30;99399.00;;;;5116479;28;20802;-72
2021/12/13 07:05:00;;;;;;;0.70;0.70;;;6.10;92.40;5.30;99397.00;;;;5115728;28;20653;-72
2021/12/13 07:07:33;;;;;;;1.80;1.70;;;6.10;92.50;5.30;99404.00;;;;5098445;28;20225;-72
2021/12/13 07:10:05;;;;;;;1.87;1.77;;;6.10;92.50;5.30;99404.00;;;;5116723;28;20677;-69
2021/12/13 07:12:32;;;;;;;1.03;1.03;;;6.10;92.50;5.30;99403.00;;;;5098406;28;20317;-70
2021/12/13 07:15:01;;;;;;;1.87;1.77;;;6.10;92.50;5.30;99413.00;;;;5116335;28;20278;-70
2021/12/13 07:17:35;;;;;;;1.43;1.40;;;6.10;92.50;5.30;99405.00;;;;5116377;28;20175;-70
2021/12/13 07:20:16;;;;;;;0.90;0.90;;;6.10;92.60;5.30;99406.00;;;;5116252;28;20232;-71
2021/12/13 07:22:43;;;;;;;1.33;1.33;;;6.10;92.60;5.30;99395.00;;;;5116059;28;20224;-70
2021/12/13 07:25:15;;;;;;;0.83;0.83;;;6.10;92.60;5.40;99401.00;;;;5116232;28;20308;-71
2021/12/13 07:27:45;;;;;;;1.70;1.60;;;6.10;92.70;5.40;99395.00;;;;5116332;28;20193;-71
2021/12/13 07:30:16;;;;;;;1.47;1.43;;;6.20;92.60;5.40;99402.00;;;;5116334;28;20254;-71
2021/12/13 07:32:49;;;;;;;2.00;1.80;;;6.20;92.60;5.40;99402.00;;;;5098241;28;20225;-71
2021/12/13 07:35:20;;;;;;;1.23;1.23;;;6.20;92.60;5.40;99400.00;;;;5116206;28;20204;-71
2021/12/13 07:37:51;;;;;;;1.70;1.60;;;6.20;92.70;5.40;99397.00;;;;5116120;28;20259;-71
2021/12/13 07:40:40;;;;;;;3.43;2.80;;;6.20;92.70;5.40;99409.00;;;;5115117;28;20214;-71
2021/12/13 07:43:19;;;;;;;1.83;1.73;;;6.20;92.60;5.40;99417.00;;;;5115821;28;20268;-70
2021/12/13 07:45:57;;;;;;;2.20;2.07;;;6.20;92.50;5.40;99413.00;;;;5115825;28;20309;-71
2021/12/13 07:48:29;;;;;;;1.80;1.70;;;6.20;92.50;5.40;99411.00;;;;5116043;28;20283;-70
2021/12/13 07:51:12;;;;;;;1.50;1.40;;;6.20;92.40;5.40;99414.00;;;;5116082;28;20671;-71
2021/12/13 07:53:48;;;;;;;2.40;1.37;;;6.20;92.40;5.40;99366.00;;;;5115795;28;20221;-71
2021/12/13 07:56:24;;;;;;;1.67;1.57;;;6.20;92.30;5.40;99413.00;;;;5116063;28;20222;-71
2021/12/13 07:59:04;;;;;;;0.80;0.80;;;6.20;92.20;5.30;99414.00;;;;5115772;28;20233;-71
2021/12/13 08:01:42;;;;;;;1.00;1.00;;;6.20;92.40;5.50;99419.00;;;;5097616;28;20559;-69
2021/12/13 08:04:17;;;;;;;1.70;1.60;;;6.20;92.40;5.50;99418.00;;;;5115654;28;20221;-71
2021/12/13 08:06:51;;;;;;;1.50;1.40;;;6.30;92.40;5.50;99426.00;;;;5097498;28;20254;-70
2021/12/13 08:09:25;;;;;;;1.77;1.67;;;6.30;92.20;5.50;99406.00;;;;5115599;28;20212;-70
2021/12/13 08:11:57;;;;;;;5.27;1.93;;;6.30;92.30;5.60;99425.00;;;;5115473;28;20243;-70
2021/12/13 08:14:29;;;;;;;1.13;1.13;;;6.40;92.30;5.70;99418.00;;;;5115440;28;20195;-70
2021/12/13 08:16:56;;;;;;;2.40;1.97;;;6.40;92.20;5.80;99425.00;;;;5115400;28;20226;-70
2021/12/13 08:19:27;;;;;;;1.43;1.33;;;6.50;92.20;5.80;99423.00;;;;5115479;28;20748;-70
2021/12/13 08:21:58;;;;;;;3.30;1.70;;;6.50;92.00;5.90;99419.00;;;;5115287;28;20605;-70
2021/12/13 08:24:33;;;;;;;1.10;1.10;;;6.60;92.00;5.90;99427.00;;;;5115345;28;20229;-70
2021/12/13 08:27:08;;;;;;;1.77;1.67;;;6.70;91.90;6.00;99430.00;;;;5115357;28;20347;-69
2021/12/13 08:29:38;;;;;;;2.23;2.07;;;6.70;91.70;6.10;99430.00;;;;5097623;28;20570;-69
2021/12/13 08:32:11;;;;;;;2.03;1.93;;;6.80;91.30;6.10;99434.00;;;;5115160;28;20231;-69
2021/12/13 08:34:45;;;;;;;2.07;1.87;;;6.80;91.20;6.20;99417.00;;;;5115267;28;20194;-70
2021/12/13 08:37:25;;;;;;;1.73;1.63;;;6.80;91.00;6.20;99417.00;;;;5115127;28;20228;-69
2021/12/13 08:39:58;;;;;;;1.47;1.37;;;6.90;90.80;6.20;99430.00;;;;5115203;28;20283;-69
2021/12/13 08:42:30;;;;;;;2.23;2.10;;;6.90;90.80;6.20;99418.00;;;;5114893;28;20265;-69
2021/12/13 08:45:09;;;;;;;1.37;1.27;;;6.90;90.70;6.20;99430.00;;;;5115045;28;20296;-70
2021/12/13 08:47:42;;;;;;;3.80;3.10;;;7.00;90.80;6.30;99431.00;;;;5114969;28;20571;-71
2021/12/13 08:50:18;;;;;;;1.50;1.50;;;7.00;90.40;6.30;99437.00;;;;5114967;28;20367;-71
2021/12/13 08:52:55;;;;;;;1.13;1.13;;;7.00;90.30;6.30;99447.00;;;;5114896;28;20265;-71
2021/12/13 08:55:31;;;;;;;1.40;1.33;;;7.00;90.10;6.40;99440.00;;;;5114825;28;20203;-70
2021/12/13 08:58:15;;;;;;;0.90;0.90;;;7.10;90.20;6.40;99432.00;;;;5114890;28;20211;-71
2021/12/13 09:00:55;;;;;;;1.17;1.10;;;7.10;90.00;6.40;99432.00;;;;5114888;28;20192;-71
2021/12/13 09:03:38;;;;;;;0.70;0.70;;;7.10;90.10;6.40;99438.00;;;;5096969;28;20324;-71
2021/12/13 09:06:30;;;;;;;1.17;1.17;;;7.20;89.90;6.50;99439.00;;;;5114848;28;20227;-70
2021/12/13 09:09:09;;;;;;;0.87;0.87;;;7.20;89.80;6.40;99436.00;;;;5114504;28;20759;-70
2021/12/13 09:11:43;;;;;;;1.90;1.80;;;7.20;89.40;6.50;99440.00;;;;5114736;28;20200;-72
2021/12/13 09:14:19;;;;;;;4.33;1.57;;;7.30;89.60;6.60;99437.00;;;;5114730;28;20221;-70
2021/12/13 09:17:07;;;;;;;1.87;1.67;;;7.30;89.40;6.70;99444.00;;;;5114569;28;20292;-72
2021/12/13 09:19:58;;;;;;;0.90;0.90;;;7.40;89.10;6.70;99446.00;;;;5114707;28;20200;-73
2021/12/13 09:22:30;;;;;;;1.20;1.20;;;7.40;88.70;6.70;99451.00;;;;5114575;28;20660;-70
2021/12/13 09:25:03;;;;;;;1.00;1.00;;;7.50;88.40;6.70;99452.00;;;;5114605;28;20236;-70
2021/12/13 09:27:43;;;;;;;0.73;0.73;;;7.40;87.80;6.60;99460.00;;;;5113923;28;20317;-70
2021/12/13 09:30:40;;;;;;;1.23;1.23;;;7.40;87.20;6.80;99461.00;;;;5096750;28;20565;-71
2021/12/13 09:33:17;;;;;;;1.27;1.00;;;7.50;87.20;6.80;99456.00;;;;5052021;28;20223;-71
2021/12/13 09:35:53;;;;;;;0.70;0.70;;;7.50;86.80;6.80;99460.00;;;;5114450;28;20328;-71
2021/12/13 09:38:37;;;;;;;1.23;1.17;;;7.60;86.80;7.00;99453.00;;;;5114382;28;20223;-70
2021/12/13 09:41:30;;;;;;;1.67;1.57;;;7.60;86.70;7.00;99456.00;;;;5114371;28;20416;-70
2021/12/13 09:44:16;;;;;;;1.17;1.17;;;7.70;86.70;7.10;99457.00;;;;5104123;28;20204;-70
2021/12/13 09:46:52;;;;;;;1.27;1.27;;;7.70;86.10;7.20;99457.00;;;;5096368;28;20220;-71
2021/12/13 09:49:26;;;;;;;1.23;1.23;;;7.90;85.90;7.20;99450.00;;;;5114144;28;20207;-71
2021/12/13 09:52:03;;;;;;;1.33;1.33;;;7.90;85.80;7.30;99443.00;;;;5114074;28;20258;-71
2021/12/13 09:54:40;;;;;;;0.83;0.83;;;8.00;85.30;7.30;99445.00;;;;5114125;28;20230;-72
2021/12/13 09:57:15;;;;;;;1.37;1.37;;;7.90;85.40;7.40;99444.00;;;;5114043;28;20200;-72
2021/12/13 09:59:47;;;;;;;1.67;1.57;;;8.00;85.60;7.40;99435.00;;;;5114018;28;20211;-71
2021/12/13 10:02:21;;;;;;;1.20;1.20;;;8.10;85.20;7.50;99439.00;;;;5113984;28;20378;-73
2021/12/13 10:04:50;;;;;;;0.83;0.77;;;8.20;85.10;7.50;99444.00;;;;5096097;28;20221;-72
2021/12/13 10:07:25;;;;;;;0.90;0.90;;;8.20;85.20;7.70;99444.00;;;;5096131;28;20501;-70
2021/12/13 10:10:00;;;;;;;0.77;0.77;;;8.30;85.30;7.80;99431.00;;;;5113938;28;20189;-70
2021/12/13 10:12:34;;;;;;;1.20;1.20;;;8.40;85.20;7.90;99434.00;;;;5096331;28;20579;-71
2021/12/13 10:15:09;;;;;;;1.73;1.63;;;8.50;84.80;8.00;99431.00;;;;5096017;28;20202;-72
2021/12/13 10:17:46;;;;;;;2.00;0.90;;;8.60;84.00;8.10;99432.00;;;;5113774;28;20225;-71
2021/12/13 10:20:21;;;;;;;1.20;1.20;;;8.70;84.10;8.10;99435.00;;;;5113853;28;20284;-71
2021/12/13 10:22:50;;;;;;;1.20;1.20;;;8.80;84.00;8.20;99435.00;;;;5113633;28;20306;-71
2021/12/13 10:25:24;;;;;;;1.33;1.27;;;8.90;83.70;8.20;99427.00;;;;5113791;28;20317;-71
2021/12/13 10:27:52;;;;;;;2.57;1.93;;;8.80;83.40;8.20;99417.00;;;;5113785;28;20189;-71
2021/12/13 10:30:25;;;;;;;0.87;0.87;;;8.90;83.40;8.20;99414.00;;;;5113640;28;20226;-71
2021/12/13 10:32:54;;;;;;;0.83;0.83;;;8.90;83.40;8.10;99419.00;;;;5113685;28;20194;-69
2021/12/13 10:35:29;;;;;;;1.00;1.00;;;8.90;83.70;8.20;99422.00;;;;5113436;28;20240;-71
2021/12/13 10:38:03;;;;;;;2.20;2.10;;;8.90;83.70;8.10;99427.00;;;;5095640;28;20293;-71
2021/12/13 10:40:35;;;;;;;2.03;1.87;;;8.90;84.00;8.20;99416.00;;;;5116674;28;20288;-70
2021/12/13 10:43:08;;;;;;;1.33;1.30;;;8.90;84.00;8.10;99418.00;;;;5116937;28;20308;-70
2021/12/13 10:45:40;;;;;;;0.90;0.90;;;8.90;84.50;8.10;99415.00;;;;5116857;28;20198;-70
2021/12/13 10:48:13;;;;;;;1.50;1.10;;;8.80;84.60;8.20;99417.00;;;;5116852;28;20221;-71
2021/12/13 10:50:47;;;;;;;1.90;1.80;;;8.80;84.90;8.20;99418.00;;;;5098980;28;20206;-69
2021/12/13 10:53:18;;;;;;;1.27;1.27;;;8.90;85.30;8.10;99411.00;;;;5116891;28;20210;-72
2021/12/13 10:55:54;;;;;;;1.30;0.90;;;8.90;85.40;8.20;99413.00;;;;5116733;28;20230;-71
2021/12/13 10:58:29;;;;;;;0.77;0.77;;;8.90;85.80;8.20;99412.00;;;;5098850;28;20204;-70
2021/12/13 11:01:00;;;;;;;1.20;1.20;;;8.90;86.00;8.20;99404.00;;;;5116514;28;20350;-71
2021/12/13 11:03:31;;;;;;;1.27;1.23;;;8.90;86.20;8.30;99410.00;;;;5116625;28;20300;-70
2021/12/13 11:06:01;;;;;;;0.90;0.90;;;8.90;86.10;8.30;99380.00;;;;5116659;28;20601;-70
2021/12/13 11:08:30;;;;;;;1.10;1.10;;;9.00;86.10;8.50;99400.00;;;;5098631;28;20362;-71
2021/12/13 11:11:05;;;;;;;1.83;1.73;;;9.10;86.30;8.50;99403.00;;;;5116670;28;20236;-69
2021/12/13 11:13:36;;;;;;;0.80;0.80;;;9.20;85.70;8.50;99406.00;;;;5116472;28;20656;-70
2021/12/13 11:16:10;;;;;;;1.23;1.23;;;9.10;85.80;8.60;99403.00;;;;5116469;28;20250;-72
2021/12/13 11:18:37;;;;;;;1.43;1.43;;;9.20;86.00;8.70;99389.00;;;;5116305;28;20623;-71
2021/12/13 11:21:09;;;;;;;1.53;1.43;;;9.30;86.00;8.70;99399.00;;;;5116440;28;20193;-71
2021/12/13 11:23:36;;;;;;;1.00;1.00;;;9.40;85.50;8.80;99392.00;;;;5116293;28;20221;-71
2021/12/13 11:26:11;;;;;;;0.60;0.60;;;9.40;85.40;8.70;99394.00;;;;5116186;28;20217;-72
2021/12/13 11:28:40;;;;;;;2.90;1.03;;;9.40;85.00;8.80;99393.00;;;;5116280;28;20256;-72
2021/12/13 11:31:14;;;;;;;1.27;1.20;;;9.40;84.90;8.80;99390.00;;;;5116152;28;20198;-74
2021/12/13 11:34:46;;;;;;;0.93;0.93;;;9.40;84.90;8.70;99381.00;;;;5116307;28;20605;-73
2021/12/13 11:38:04;;;;;;;1.70;1.60;;;9.50;84.90;8.80;99361.00;;;;5116419;28;20224;-73
2021/12/13 11:41:07;;;;;;;0.90;0.90;;;9.50;85.20;8.80;99382.00;;;;5116303;28;20209;-72
2021/12/13 11:43:58;;;;;;;1.63;1.53;;;9.50;84.70;8.80;99384.00;;;;5116168;28;20248;-73
2021/12/13 11:46:55;;;;;;;1.00;1.00;;;9.50;85.30;8.80;99391.00;;;;5116140;28;20205;-70
2021/12/13 11:50:19;;;;;;;0.90;0.90;;;9.50;84.70;8.80;99387.00;;;;5115692;28;20237;-73